sensor_id;sensor_type;location;lat;lon;timestamp;pressure;altitude;pressure_sealevel;temperature;humidity
9063;BME280;4567;42.118;24.746;2022-12-18T00:01:56;100331.38;;;12.52;93.24
9063;BME280;4567;42.118;24.746;2022-12-18T00:04:26;100336.84;;;12.52;92.90
9063;BME280;4567;42.118;24.746;2022-12-18T00:06:53;100339.13;;;12.50;92.59
9063;BME280;4567;42.118;24.746;2022-12-18T00:09:20;100358.38;;;12.50;92.19
9063;BME280;4567;42.118;24.746;2022-12-18T00:11:47;100361.88;;;12.37;92.51
9063;BME280;4567;42.118;24.746;2022-12-18T00:14:13;100357.81;;;12.34;92.24
9063;BME280;4567;42.118;24.746;2022-12-18T00:16:43;100368.31;;;12.32;92.43
9063;BME280;4567;42.118;24.746;2022-12-18T00:19:11;100379.31;;;12.32;92.74
9063;BME280;4567;42.118;24.746;2022-12-18T00:21:40;100391.59;;;12.21;93.65
9063;BME280;4567;42.118;24.746;2022-12-18T00:24:07;100386.81;;;12.27;93.53
9063;BME280;4567;42.118;24.746;2022-12-18T00:26:35;100391.50;;;12.26;93.59
9063;BME280;4567;42.118;24.746;2022-12-18T00:29:04;100399.75;;;12.26;93.43
9063;BME280;4567;42.118;24.746;2022-12-18T00:31:31;100402.94;;;12.33;92.75
9063;BME280;4567;42.118;24.746;2022-12-18T00:33:58;100404.34;;;12.31;92.36
9063;BME280;4567;42.118;24.746;2022-12-18T00:36:26;100399.66;;;12.31;92.56
9063;BME280;4567;42.118;24.746;2022-12-18T00:38:55;100412.28;;;12.32;92.33
9063;BME280;4567;42.118;24.746;2022-12-18T00:41:23;100409.31;;;12.29;92.41
9063;BME280;4567;42.118;24.746;2022-12-18T00:44:10;100424.72;;;12.30;92.11
9063;BME280;4567;42.118;24.746;2022-12-18T00:46:37;100428.78;;;12.32;91.78
9063;BME280;4567;42.118;24.746;2022-12-18T00:49:04;100440.09;;;12.31;91.93
9063;BME280;4567;42.118;24.746;2022-12-18T00:51:31;100438.97;;;12.32;92.00
9063;BME280;4567;42.118;24.746;2022-12-18T00:53:59;100421.38;;;12.14;91.97
9063;BME280;4567;42.118;24.746;2022-12-18T00:56:26;100441.91;;;12.22;92.04
9063;BME280;4567;42.118;24.746;2022-12-18T00:58:53;100435.88;;;12.20;91.63
9063;BME280;4567;42.118;24.746;2022-12-18T01:01:19;100434.75;;;12.21;91.23
9063;BME280;4567;42.118;24.746;2022-12-18T01:03:46;100436.47;;;12.17;90.99
9063;BME280;4567;42.118;24.746;2022-12-18T01:06:14;100429.63;;;12.14;91.29
9063;BME280;4567;42.118;24.746;2022-12-18T01:08:41;100427.72;;;12.15;91.61
9063;BME280;4567;42.118;24.746;2022-12-18T01:11:11;100425.16;;;12.18;91.32
9063;BME280;4567;42.118;24.746;2022-12-18T01:13:38;100426.00;;;12.19;91.12
9063;BME280;4567;42.118;24.746;2022-12-18T01:16:05;100417.31;;;12.12;91.12
9063;BME280;4567;42.118;24.746;2022-12-18T01:18:32;100419.03;;;12.08;91.39
9063;BME280;4567;42.118;24.746;2022-12-18T01:20:58;100419.31;;;12.06;91.69
9063;BME280;4567;42.118;24.746;2022-12-18T01:23:25;100416.28;;;12.08;91.30
9063;BME280;4567;42.118;24.746;2022-12-18T01:25:52;100421.97;;;12.11;91.13
9063;BME280;4567;42.118;24.746;2022-12-18T01:28:20;100422.91;;;12.07;91.03
9063;BME280;4567;42.118;24.746;2022-12-18T01:30:46;100419.31;;;12.06;91.36
9063;BME280;4567;42.118;24.746;2022-12-18T01:33:13;100417.31;;;12.12;91.47
9063;BME280;4567;42.118;24.746;2022-12-18T01:35:40;100418.94;;;12.13;91.60
9063;BME280;4567;42.118;24.746;2022-12-18T01:38:08;100417.81;;;12.14;91.19
9063;BME280;4567;42.118;24.746;2022-12-18T01:40:35;100416.19;;;12.13;91.35
9063;BME280;4567;42.118;24.746;2022-12-18T01:43:02;100419.75;;;12.13;90.99
9063;BME280;4567;42.118;24.746;2022-12-18T01:45:30;100417.50;;;12.15;90.36
9063;BME280;4567;42.118;24.746;2022-12-18T01:47:59;100420.56;;;12.14;90.88
9063;BME280;4567;42.118;24.746;2022-12-18T01:50:30;100414.47;;;12.17;91.05
9063;BME280;4567;42.118;24.746;2022-12-18T01:53:00;100417.22;;;12.17;91.94
9063;BME280;4567;42.118;24.746;2022-12-18T01:55:31;100420.56;;;12.14;93.54
9063;BME280;4567;42.118;24.746;2022-12-18T01:58:01;100410.78;;;12.08;95.12
9063;BME280;4567;42.118;24.746;2022-12-18T02:00:30;100421.69;;;12.13;96.27
9063;BME280;4567;42.118;24.746;2022-12-18T02:02:57;100420.78;;;12.17;96.81
9063;BME280;4567;42.118;24.746;2022-12-18T02:05:35;100429.53;;;12.19;97.63
9063;BME280;4567;42.118;24.746;2022-12-18T02:08:10;100418.66;;;11.96;98.54
9063;BME280;4567;42.118;24.746;2022-12-18T02:10:46;100445.09;;;12.10;98.81
9063;BME280;4567;42.118;24.746;2022-12-18T02:13:19;100441.00;;;12.08;99.00
9063;BME280;4567;42.118;24.746;2022-12-18T02:15:53;100440.72;;;12.09;99.27
9063;BME280;4567;42.118;24.746;2022-12-18T02:18:26;100443.38;;;12.14;99.06
9063;BME280;4567;42.118;24.746;2022-12-18T02:21:00;100445.81;;;12.16;99.17
9063;BME280;4567;42.118;24.746;2022-12-18T02:23:44;100456.28;;;12.14;99.16
9063;BME280;4567;42.118;24.746;2022-12-18T02:26:19;100452.34;;;12.20;98.98
9063;BME280;4567;42.118;24.746;2022-12-18T02:28:51;100448.28;;;12.17;98.93
9063;BME280;4567;42.118;24.746;2022-12-18T02:31:25;100455.09;;;12.20;98.52
9063;BME280;4567;42.118;24.746;2022-12-18T02:33:55;100445.81;;;12.16;99.17
9063;BME280;4567;42.118;24.746;2022-12-18T02:36:22;100449.31;;;12.21;98.29
9063;BME280;4567;42.118;24.746;2022-12-18T02:38:51;100441.31;;;12.06;99.12
9063;BME280;4567;42.118;24.746;2022-12-18T02:41:20;100442.78;;;12.17;98.76
9063;BME280;4567;42.118;24.746;2022-12-18T02:43:48;100441.81;;;12.27;97.66
9063;BME280;4567;42.118;24.746;2022-12-18T02:46:26;100440.19;;;12.26;97.34
9063;BME280;4567;42.118;24.746;2022-12-18T02:48:56;100446.47;;;12.26;97.05
9063;BME280;4567;42.118;24.746;2022-12-18T02:51:30;100438.75;;;12.28;97.15
9063;BME280;4567;42.118;24.746;2022-12-18T02:54:03;100441.91;;;12.35;96.66
9063;BME280;4567;42.118;24.746;2022-12-18T02:56:36;100437.16;;;12.41;95.37
9063;BME280;4567;42.118;24.746;2022-12-18T02:59:08;100446.97;;;12.47;95.00
9063;BME280;4567;42.118;24.746;2022-12-18T03:01:42;100455.50;;;12.45;94.85
9063;BME280;4567;42.118;24.746;2022-12-18T03:04:14;100442.25;;;12.34;95.88
9063;BME280;4567;42.118;24.746;2022-12-18T03:06:46;100447.34;;;12.40;95.99
9063;BME280;4567;42.118;24.746;2022-12-18T03:09:17;100449.19;;;12.45;95.68
9063;BME280;4567;42.118;24.746;2022-12-18T03:11:54;100450.22;;;12.49;95.65
9063;BME280;4567;42.118;24.746;2022-12-18T03:14:41;100452.56;;;12.42;96.12
9063;BME280;4567;42.118;24.746;2022-12-18T03:17:10;100456.47;;;12.36;96.20
9063;BME280;4567;42.118;24.746;2022-12-18T03:19:41;100454.28;;;12.38;96.30
9063;BME280;4567;42.118;24.746;2022-12-18T03:22:10;100464.22;;;12.34;96.79
9063;BME280;4567;42.118;24.746;2022-12-18T03:24:37;100457.69;;;12.30;96.62
9063;BME280;4567;42.118;24.746;2022-12-18T03:27:12;100464.69;;;12.22;97.76
9063;BME280;4567;42.118;24.746;2022-12-18T03:29:42;100468.03;;;12.19;98.07
9063;BME280;4567;42.118;24.746;2022-12-18T03:32:14;100473.22;;;12.21;98.08
9063;BME280;4567;42.118;24.746;2022-12-18T03:34:43;100476.41;;;12.28;97.98
9063;BME280;4567;42.118;24.746;2022-12-18T03:37:13;100476.59;;;12.18;98.27
9063;BME280;4567;42.118;24.746;2022-12-18T03:39:40;100460.16;;;12.13;97.89
9063;BME280;4567;42.118;24.746;2022-12-18T03:42:11;100478.88;;;12.29;97.65
9063;BME280;4567;42.118;24.746;2022-12-18T03:44:43;100491.19;;;12.32;97.32
9063;BME280;4567;42.118;24.746;2022-12-18T03:47:15;100491.03;;;12.42;96.42
9063;BME280;4567;42.118;24.746;2022-12-18T03:49:48;100506.19;;;12.39;96.38
9063;BME280;4567;42.118;24.746;2022-12-18T03:52:20;100507.00;;;12.40;96.38
9063;BME280;4567;42.118;24.746;2022-12-18T03:54:49;100513.63;;;12.39;96.12
9063;BME280;4567;42.118;24.746;2022-12-18T03:57:20;100518.91;;;12.35;96.08
9063;BME280;4567;42.118;24.746;2022-12-18T03:59:50;100514.81;;;12.33;96.16
9063;BME280;4567;42.118;24.746;2022-12-18T04:02:18;100521.22;;;12.28;96.21
9063;BME280;4567;42.118;24.746;2022-12-18T04:04:47;100508.06;;;12.25;94.88
9063;BME280;4567;42.118;24.746;2022-12-18T04:07:15;100517.50;;;12.38;94.51
9063;BME280;4567;42.118;24.746;2022-12-18T04:09:43;100521.88;;;12.39;94.41
9063;BME280;4567;42.118;24.746;2022-12-18T04:12:11;100526.03;;;12.36;94.47
9063;BME280;4567;42.118;24.746;2022-12-18T04:14:39;100526.34;;;12.35;94.40
9063;BME280;4567;42.118;24.746;2022-12-18T04:17:06;100527.13;;;12.35;94.44
9063;BME280;4567;42.118;24.746;2022-12-18T04:19:33;100527.59;;;12.24;94.88
9063;BME280;4567;42.118;24.746;2022-12-18T04:21:59;100528.50;;;12.19;94.63
9063;BME280;4567;42.118;24.746;2022-12-18T04:24:26;100523.53;;;12.21;93.67
9063;BME280;4567;42.118;24.746;2022-12-18T04:26:53;100537.06;;;12.18;92.81
9063;BME280;4567;42.118;24.746;2022-12-18T04:29:20;100522.63;;;11.89;92.69
9063;BME280;4567;42.118;24.746;2022-12-18T04:31:48;100542.59;;;11.94;92.06
9063;BME280;4567;42.118;24.746;2022-12-18T04:34:14;100540.81;;;11.85;92.18
9063;BME280;4567;42.118;24.746;2022-12-18T04:36:41;100544.53;;;11.94;91.32
9063;BME280;4567;42.118;24.746;2022-12-18T04:39:08;100556.16;;;11.86;89.73
9063;BME280;4567;42.118;24.746;2022-12-18T04:41:34;100550.00;;;11.75;90.04
9063;BME280;4567;42.118;24.746;2022-12-18T04:44:01;100524.81;;;11.45;89.21
9063;BME280;4567;42.118;24.746;2022-12-18T04:46:28;100562.25;;;11.64;88.78
9063;BME280;4567;42.118;24.746;2022-12-18T04:48:56;100565.56;;;11.61;88.24
9063;BME280;4567;42.118;24.746;2022-12-18T04:51:23;100570.63;;;11.49;87.92
9063;BME280;4567;42.118;24.746;2022-12-18T04:53:49;100569.03;;;11.43;88.40
9063;BME280;4567;42.118;24.746;2022-12-18T04:56:16;100577.72;;;11.50;88.04
9063;BME280;4567;42.118;24.746;2022-12-18T04:58:44;100588.00;;;11.40;87.68
9063;BME280;4567;42.118;24.746;2022-12-18T05:01:12;100566.50;;;11.23;87.47
9063;BME280;4567;42.118;24.746;2022-12-18T05:03:39;100594.78;;;11.24;87.09
9063;BME280;4567;42.118;24.746;2022-12-18T05:06:07;100589.63;;;11.17;87.03
9063;BME280;4567;42.118;24.746;2022-12-18T05:08:34;100598.31;;;11.24;86.87
9063;BME280;4567;42.118;24.746;2022-12-18T05:11:03;100606.88;;;11.18;87.42
9063;BME280;4567;42.118;24.746;2022-12-18T05:13:30;100603.00;;;11.24;87.91
9063;BME280;4567;42.118;24.746;2022-12-18T05:15:57;100609.28;;;11.24;88.60
9063;BME280;4567;42.118;24.746;2022-12-18T05:18:24;100611.75;;;11.26;88.47
9063;BME280;4567;42.118;24.746;2022-12-18T05:20:52;100611.75;;;11.26;89.08
9063;BME280;4567;42.118;24.746;2022-12-18T05:23:22;100618.41;;;11.20;89.34
9063;BME280;4567;42.118;24.746;2022-12-18T05:25:51;100624.41;;;11.22;89.78
9063;BME280;4567;42.118;24.746;2022-12-18T05:28:18;100630.16;;;11.25;89.65
9063;BME280;4567;42.118;24.746;2022-12-18T05:30:48;100634.81;;;11.25;89.51
9063;BME280;4567;42.118;24.746;2022-12-18T05:33:15;100653.53;;;11.23;89.91
9063;BME280;4567;42.118;24.746;2022-12-18T05:35:41;100649.56;;;11.34;88.68
9063;BME280;4567;42.118;24.746;2022-12-18T05:38:08;100657.91;;;11.24;89.18
9063;BME280;4567;42.118;24.746;2022-12-18T05:40:36;100649.13;;;11.22;88.61
9063;BME280;4567;42.118;24.746;2022-12-18T05:43:05;100660.16;;;11.17;87.90
9063;BME280;4567;42.118;24.746;2022-12-18T05:45:32;100662.31;;;11.20;87.40
9063;BME280;4567;42.118;24.746;2022-12-18T05:47:59;100666.13;;;11.24;87.05
9063;BME280;4567;42.118;24.746;2022-12-18T05:50:25;100675.44;;;11.28;86.62
9063;BME280;4567;42.118;24.746;2022-12-18T05:52:52;100679.91;;;11.19;86.82
9063;BME280;4567;42.118;24.746;2022-12-18T05:55:18;100687.59;;;11.17;86.56
9063;BME280;4567;42.118;24.746;2022-12-18T05:57:46;100680.38;;;11.26;85.84
9063;BME280;4567;42.118;24.746;2022-12-18T06:00:14;100683.94;;;11.26;84.38
9063;BME280;4567;42.118;24.746;2022-12-18T06:02:41;100678.28;;;11.13;85.06
9063;BME280;4567;42.118;24.746;2022-12-18T06:05:08;100688.09;;;11.24;85.06
9063;BME280;4567;42.118;24.746;2022-12-18T06:07:36;100680.69;;;11.19;84.79
9063;BME280;4567;42.118;24.746;2022-12-18T06:10:03;100687.47;;;11.32;84.09
9063;BME280;4567;42.118;24.746;2022-12-18T06:12:30;100685.84;;;11.31;84.57
9063;BME280;4567;42.118;24.746;2022-12-18T06:15:00;100687.41;;;11.37;84.20
9063;BME280;4567;42.118;24.746;2022-12-18T06:17:27;100691.34;;;11.26;85.11
9063;BME280;4567;42.118;24.746;2022-12-18T06:19:55;100697.88;;;11.35;85.46
9063;BME280;4567;42.118;24.746;2022-12-18T06:22:22;100698.78;;;11.25;85.89
9063;BME280;4567;42.118;24.746;2022-12-18T06:24:48;100706.41;;;11.33;85.61
9063;BME280;4567;42.118;24.746;2022-12-18T06:27:15;100709.88;;;11.44;85.55
9063;BME280;4567;42.118;24.746;2022-12-18T06:29:42;100715.06;;;11.45;86.04
9063;BME280;4567;42.118;24.746;2022-12-18T06:32:10;100713.75;;;11.38;86.36
9063;BME280;4567;42.118;24.746;2022-12-18T06:34:37;100725.00;;;11.41;86.54
9063;BME280;4567;42.118;24.746;2022-12-18T06:37:04;100722.25;;;11.41;85.87
9063;BME280;4567;42.118;24.746;2022-12-18T06:39:30;100733.69;;;11.48;85.08
9063;BME280;4567;42.118;24.746;2022-12-18T06:41:57;100736.97;;;11.50;85.55
9063;BME280;4567;42.118;24.746;2022-12-18T06:44:24;100746.50;;;11.58;84.55
9063;BME280;4567;42.118;24.746;2022-12-18T06:46:50;100748.66;;;11.66;84.37
9063;BME280;4567;42.118;24.746;2022-12-18T06:49:19;100758.09;;;11.55;84.11
9063;BME280;4567;42.118;24.746;2022-12-18T06:51:46;100751.22;;;11.57;83.98
9063;BME280;4567;42.118;24.746;2022-12-18T06:54:12;100753.69;;;11.54;83.99
9063;BME280;4567;42.118;24.746;2022-12-18T06:56:39;100759.97;;;11.59;83.20
9063;BME280;4567;42.118;24.746;2022-12-18T06:59:06;100766.53;;;11.63;83.57
9063;BME280;4567;42.118;24.746;2022-12-18T07:01:32;100769.56;;;11.67;83.17
9063;BME280;4567;42.118;24.746;2022-12-18T07:03:59;100773.38;;;11.71;82.74
9063;BME280;4567;42.118;24.746;2022-12-18T07:06:27;100773.94;;;11.68;83.11
9063;BME280;4567;42.118;24.746;2022-12-18T07:08:54;100774.72;;;11.73;82.63
9063;BME280;4567;42.118;24.746;2022-12-18T07:11:22;100779.44;;;11.68;82.83
9063;BME280;4567;42.118;24.746;2022-12-18T07:13:48;100780.81;;;11.65;83.57
9063;BME280;4567;42.118;24.746;2022-12-18T07:16:17;100773.94;;;11.68;82.31
9063;BME280;4567;42.118;24.746;2022-12-18T07:18:44;100782.47;;;11.66;82.09
9063;BME280;4567;42.118;24.746;2022-12-18T07:21:12;100767.38;;;11.64;81.69
9063;BME280;4567;42.118;24.746;2022-12-18T07:23:41;100785.75;;;11.68;81.71
9063;BME280;4567;42.118;24.746;2022-12-18T07:26:09;100785.69;;;11.73;81.30
9063;BME280;4567;42.118;24.746;2022-12-18T07:28:37;100792.31;;;11.72;81.60
9063;BME280;4567;42.118;24.746;2022-12-18T07:31:05;100801.06;;;11.74;81.55
9063;BME280;4567;42.118;24.746;2022-12-18T07:33:32;100801.13;;;11.69;81.06
9063;BME280;4567;42.118;24.746;2022-12-18T07:35:59;100801.69;;;11.66;81.05
9063;BME280;4567;42.118;24.746;2022-12-18T07:38:26;100799.16;;;11.75;80.44
9063;BME280;4567;42.118;24.746;2022-12-18T07:40:54;100800.53;;;11.72;79.68
9063;BME280;4567;42.118;24.746;2022-12-18T07:43:21;100764.31;;;11.32;79.19
9063;BME280;4567;42.118;24.746;2022-12-18T07:45:49;100802.84;;;11.60;78.51
9063;BME280;4567;42.118;24.746;2022-12-18T07:48:16;100814.16;;;11.49;78.22
9063;BME280;4567;42.118;24.746;2022-12-18T07:50:42;100825.34;;;11.57;78.08
9063;BME280;4567;42.118;24.746;2022-12-18T07:53:09;100823.16;;;11.54;78.03
9063;BME280;4567;42.118;24.746;2022-12-18T07:55:36;100827.25;;;11.62;77.44
9063;BME280;4567;42.118;24.746;2022-12-18T07:58:04;100827.03;;;11.53;77.66
9063;BME280;4567;42.118;24.746;2022-12-18T08:00:30;100831.16;;;11.51;77.29
9063;BME280;4567;42.118;24.746;2022-12-18T08:02:57;100836.66;;;11.51;77.02
9063;BME280;4567;42.118;24.746;2022-12-18T08:05:24;100837.72;;;11.55;76.73
9063;BME280;4567;42.118;24.746;2022-12-18T08:07:51;100839.38;;;11.56;76.66
9063;BME280;4567;42.118;24.746;2022-12-18T08:10:18;100843.56;;;11.43;76.49
9063;BME280;4567;42.118;24.746;2022-12-18T08:12:45;100849.78;;;11.59;76.23
9063;BME280;4567;42.118;24.746;2022-12-18T08:15:13;100851.53;;;11.45;76.73
9063;BME280;4567;42.118;24.746;2022-12-18T08:17:39;100859.16;;;11.53;76.65
9063;BME280;4567;42.118;24.746;2022-12-18T08:20:07;100864.03;;;11.66;75.56
9063;BME280;4567;42.118;24.746;2022-12-18T08:22:42;100874.44;;;11.69;75.07
9063;BME280;4567;42.118;24.746;2022-12-18T08:25:09;100871.97;;;11.72;74.88
9063;BME280;4567;42.118;24.746;2022-12-18T08:27:36;100869.00;;;11.64;75.07
9063;BME280;4567;42.118;24.746;2022-12-18T08:30:03;100877.31;;;11.87;74.31
9063;BME280;4567;42.118;24.746;2022-12-18T08:32:31;100874.84;;;11.86;74.76
9063;BME280;4567;42.118;24.746;2022-12-18T08:34:59;100876.53;;;11.82;74.41
9063;BME280;4567;42.118;24.746;2022-12-18T08:37:25;100871.50;;;11.94;73.75
9063;BME280;4567;42.118;24.746;2022-12-18T08:39:52;100866.09;;;11.84;73.61
9063;BME280;4567;42.118;24.746;2022-12-18T08:42:19;100863.63;;;11.82;73.99
9063;BME280;4567;42.118;24.746;2022-12-18T08:45:03;100869.91;;;11.88;73.36
9063;BME280;4567;42.118;24.746;2022-12-18T08:47:31;100862.72;;;11.92;73.04
9063;BME280;4567;42.118;24.746;2022-12-18T08:49:58;100865.47;;;11.92;72.48
9063;BME280;4567;42.118;24.746;2022-12-18T08:52:25;100863.50;;;11.97;71.56
9063;BME280;4567;42.118;24.746;2022-12-18T08:54:51;100858.81;;;11.98;72.41
9063;BME280;4567;42.118;24.746;2022-12-18T08:57:18;100853.03;;;11.99;71.69
9063;BME280;4567;42.118;24.746;2022-12-18T08:59:45;100850.78;;;12.06;71.78
9063;BME280;4567;42.118;24.746;2022-12-18T09:02:11;100852.19;;;12.04;71.82
9063;BME280;4567;42.118;24.746;2022-12-18T09:04:39;100851.59;;;12.07;71.65
9063;BME280;4567;42.118;24.746;2022-12-18T09:07:06;100844.94;;;12.13;71.51
9063;BME280;4567;42.118;24.746;2022-12-18T09:09:33;100852.66;;;12.11;71.44
9063;BME280;4567;42.118;24.746;2022-12-18T09:12:00;100853.19;;;12.13;71.14
9063;BME280;4567;42.118;24.746;2022-12-18T09:14:26;100852.06;;;12.14;71.17
9063;BME280;4567;42.118;24.746;2022-12-18T09:16:53;100855.91;;;12.18;71.39
9063;BME280;4567;42.118;24.746;2022-12-18T09:19:20;100846.00;;;12.17;71.28
9063;BME280;4567;42.118;24.746;2022-12-18T09:21:48;100852.84;;;12.19;71.36
9063;BME280;4567;42.118;24.746;2022-12-18T09:24:15;100854.88;;;12.09;71.50
9063;BME280;4567;42.118;24.746;2022-12-18T09:26:42;100856.97;;;12.22;70.80
9063;BME280;4567;42.118;24.746;2022-12-18T09:29:08;100856.50;;;12.10;69.59
9063;BME280;4567;42.118;24.746;2022-12-18T09:31:36;100860.31;;;12.14;70.12
9063;BME280;4567;42.118;24.746;2022-12-18T09:34:06;100857.56;;;12.14;69.64
9063;BME280;4567;42.118;24.746;2022-12-18T09:36:33;100856.22;;;12.11;69.59
9063;BME280;4567;42.118;24.746;2022-12-18T09:39:01;100867.22;;;12.11;69.68
9063;BME280;4567;42.118;24.746;2022-12-18T09:41:39;100868.28;;;12.15;69.83
9063;BME280;4567;42.118;24.746;2022-12-18T09:44:13;100858.78;;;12.03;69.77
9063;BME280;4567;42.118;24.746;2022-12-18T09:46:45;100851.63;;;12.02;69.77
9063;BME280;4567;42.118;24.746;2022-12-18T09:49:16;100851.06;;;12.05;69.77
9063;BME280;4567;42.118;24.746;2022-12-18T09:51:47;100860.38;;;12.09;69.16
9063;BME280;4567;42.118;24.746;2022-12-18T09:54:21;100857.09;;;12.07;69.35
9063;BME280;4567;42.118;24.746;2022-12-18T09:56:48;100861.72;;;12.11;68.59
9063;BME280;4567;42.118;24.746;2022-12-18T09:59:21;100864.19;;;12.13;69.40
9063;BME280;4567;42.118;24.746;2022-12-18T10:01:49;100862.00;;;12.10;69.13
9063;BME280;4567;42.118;24.746;2022-12-18T10:04:15;100862.50;;;12.17;68.68
9063;BME280;4567;42.118;24.746;2022-12-18T10:06:46;100859.75;;;12.17;68.12
9063;BME280;4567;42.118;24.746;2022-12-18T10:09:24;100853.81;;;12.05;67.68
9063;BME280;4567;42.118;24.746;2022-12-18T10:11:57;100860.91;;;12.11;67.98
9063;BME280;4567;42.118;24.746;2022-12-18T10:14:30;100863.78;;;11.96;67.73
9063;BME280;4567;42.118;24.746;2022-12-18T10:17:05;100855.16;;;12.07;67.50
9063;BME280;4567;42.118;24.746;2022-12-18T10:19:43;100855.75;;;12.04;68.02
9063;BME280;4567;42.118;24.746;2022-12-18T10:22:21;100854.19;;;11.93;68.05
9063;BME280;4567;42.118;24.746;2022-12-18T10:24:55;100853.53;;;12.06;68.79
9063;BME280;4567;42.118;24.746;2022-12-18T10:27:26;100864.22;;;12.08;68.78
9063;BME280;4567;42.118;24.746;2022-12-18T10:29:53;100860.91;;;12.11;67.99
9063;BME280;4567;42.118;24.746;2022-12-18T10:32:22;100855.25;;;11.97;67.72
9063;BME280;4567;42.118;24.746;2022-12-18T10:34:54;100860.38;;;12.09;67.76
9063;BME280;4567;42.118;24.746;2022-12-18T10:37:23;100858.19;;;12.06;68.67
9063;BME280;4567;42.118;24.746;2022-12-18T10:40:10;100861.00;;;12.01;69.01
9063;BME280;4567;42.118;24.746;2022-12-18T10:42:37;100865.44;;;11.97;68.71
9063;BME280;4567;42.118;24.746;2022-12-18T10:45:09;100867.56;;;12.05;68.93
9063;BME280;4567;42.118;24.746;2022-12-18T10:47:42;100858.38;;;11.86;69.25
9063;BME280;4567;42.118;24.746;2022-12-18T10:50:18;100881.97;;;11.92;69.05
9063;BME280;4567;42.118;24.746;2022-12-18T10:52:53;100872.19;;;11.76;68.92
9063;BME280;4567;42.118;24.746;2022-12-18T10:55:22;100886.72;;;11.81;69.22
9063;BME280;4567;42.118;24.746;2022-12-18T10:57:48;100893.56;;;11.84;69.34
9063;BME280;4567;42.118;24.746;2022-12-18T11:00:24;100891.75;;;11.69;70.06
9063;BME280;4567;42.118;24.746;2022-12-18T11:02:51;100898.06;;;11.70;69.86
9063;BME280;4567;42.118;24.746;2022-12-18T11:05:29;100901.56;;;11.80;69.61
9063;BME280;4567;42.118;24.746;2022-12-18T11:07:57;100902.66;;;11.79;70.20
9063;BME280;4567;42.118;24.746;2022-12-18T11:10:30;100898.31;;;11.73;70.82
9063;BME280;4567;42.118;24.746;2022-12-18T11:13:10;100909.94;;;11.60;71.91
9063;BME280;4567;42.118;24.746;2022-12-18T11:15:40;100908.22;;;11.69;72.26
9063;BME280;4567;42.118;24.746;2022-12-18T11:18:16;100909.13;;;11.50;73.09
9063;BME280;4567;42.118;24.746;2022-12-18T11:20:50;100922.91;;;11.45;73.20
9063;BME280;4567;42.118;24.746;2022-12-18T11:23:18;100923.78;;;11.35;73.71
9063;BME280;4567;42.118;24.746;2022-12-18T11:25:53;100917.75;;;11.28;73.90
9063;BME280;4567;42.118;24.746;2022-12-18T11:28:29;100910.72;;;11.17;74.20
9063;BME280;4567;42.118;24.746;2022-12-18T11:31:17;100919.22;;;11.16;73.92
9063;BME280;4567;42.118;24.746;2022-12-18T11:33:47;100911.81;;;11.11;73.62
9063;BME280;4567;42.118;24.746;2022-12-18T11:36:18;100919.53;;;11.09;73.85
9063;BME280;4567;42.118;24.746;2022-12-18T11:38:47;100917.59;;;11.15;73.67
9063;BME280;4567;42.118;24.746;2022-12-18T11:41:23;100919.56;;;10.99;73.71
9063;BME280;4567;42.118;24.746;2022-12-18T11:44:13;100916.84;;;10.94;74.99
9063;BME280;4567;42.118;24.746;2022-12-18T11:46:46;100922.88;;;10.91;74.46
9063;BME280;4567;42.118;24.746;2022-12-18T11:49:20;100918.16;;;11.02;74.77
9063;BME280;4567;42.118;24.746;2022-12-18T11:51:51;100916.19;;;11.12;73.09
9063;BME280;4567;42.118;24.746;2022-12-18T11:54:19;100919.81;;;11.08;73.15
9063;BME280;4567;42.118;24.746;2022-12-18T11:56:49;100915.91;;;11.19;72.76
9063;BME280;4567;42.118;24.746;2022-12-18T11:59:24;100916.66;;;11.34;71.59
9063;BME280;4567;42.118;24.746;2022-12-18T12:02:09;100917.69;;;11.43;70.92
9063;BME280;4567;42.118;24.746;2022-12-18T12:04:47;100924.28;;;11.42;69.88
9063;BME280;4567;42.118;24.746;2022-12-18T12:07:28;100922.06;;;11.44;69.56
9063;BME280;4567;42.118;24.746;2022-12-18T12:10:09;100919.88;;;11.46;69.21
9063;BME280;4567;42.118;24.746;2022-12-18T12:12:54;100916.88;;;11.43;68.57
9063;BME280;4567;42.118;24.746;2022-12-18T12:15:30;100922.81;;;11.60;68.04
9063;BME280;4567;42.118;24.746;2022-12-18T12:18:07;100923.94;;;11.59;67.28
9063;BME280;4567;42.118;24.746;2022-12-18T12:20:44;100928.78;;;11.77;67.17
9063;BME280;4567;42.118;24.746;2022-12-18T12:23:22;100918.28;;;11.84;66.29
9063;BME280;4567;42.118;24.746;2022-12-18T12:25:58;100923.28;;;11.77;66.44
9063;BME280;4567;42.118;24.746;2022-12-18T12:28:46;100906.22;;;11.80;66.54
9063;BME280;4567;42.118;24.746;2022-12-18T12:31:26;100929.00;;;11.85;66.58
9063;BME280;4567;42.118;24.746;2022-12-18T12:34:03;100934.53;;;11.80;67.00
9063;BME280;4567;42.118;24.746;2022-12-18T12:36:42;100933.38;;;11.86;66.75
9063;BME280;4567;42.118;24.746;2022-12-18T12:39:16;100948.41;;;11.99;66.51
9063;BME280;4567;42.118;24.746;2022-12-18T12:41:45;100944.31;;;11.91;66.43
9063;BME280;4567;42.118;24.746;2022-12-18T12:44:34;100941.34;;;11.88;66.18
9063;BME280;4567;42.118;24.746;2022-12-18T12:47:12;100955.31;;;11.91;65.74
9063;BME280;4567;42.118;24.746;2022-12-18T12:49:49;100958.34;;;11.90;65.34
9063;BME280;4567;42.118;24.746;2022-12-18T12:52:21;100962.78;;;11.86;65.41
9063;BME280;4567;42.118;24.746;2022-12-18T12:54:53;100963.88;;;11.85;64.95
9063;BME280;4567;42.118;24.746;2022-12-18T12:57:27;100948.88;;;11.72;65.33
9063;BME280;4567;42.118;24.746;2022-12-18T13:00:03;100977.19;;;11.68;65.42
9063;BME280;4567;42.118;24.746;2022-12-18T13:02:35;100975.56;;;11.57;65.15
9063;BME280;4567;42.118;24.746;2022-12-18T13:05:09;100982.72;;;11.63;64.82
9063;BME280;4567;42.118;24.746;2022-12-18T13:07:47;100988.22;;;11.63;64.63
9063;BME280;4567;42.118;24.746;2022-12-18T13:10:31;100994.50;;;11.58;64.38
9063;BME280;4567;42.118;24.746;2022-12-18T13:13:00;100983.53;;;11.58;64.04
9063;BME280;4567;42.118;24.746;2022-12-18T13:15:33;100996.66;;;11.71;63.50